createdAt,value
2022-08-12T00:02:16.666Z,1.95
2022-08-12T00:04:59.605Z,2.20
2022-08-12T00:07:46.151Z,2.10
2022-08-12T00:10:28.600Z,1.63
2022-08-12T00:13:11.665Z,1.60
2022-08-12T00:15:57.249Z,1.83
2022-08-12T00:18:39.710Z,2.13
2022-08-12T00:21:22.361Z,2.28
2022-08-12T00:24:08.122Z,2.15
2022-08-12T00:26:51.831Z,2.35
2022-08-12T00:29:34.427Z,2.10
2022-08-12T00:32:35.003Z,1.92
2022-08-12T00:35:19.624Z,2.40
2022-08-12T00:38:05.931Z,2.13
2022-08-12T00:40:53.731Z,1.90
2022-08-12T00:43:26.502Z,1.77
2022-08-12T00:46:09.866Z,1.90
2022-08-12T00:48:41.032Z,1.90
2022-08-12T00:51:12.580Z,2.22
2022-08-12T00:53:42.740Z,2.20
2022-08-12T00:56:16.156Z,1.55
2022-08-12T00:58:52.675Z,1.90
2022-08-12T01:01:24.794Z,1.98
2022-08-12T01:04:07.967Z,2.28
2022-08-12T01:06:53.798Z,1.75
2022-08-12T01:09:37.834Z,2.00
2022-08-12T01:12:14.043Z,2.28
2022-08-12T01:14:45.235Z,2.25
2022-08-12T01:17:15.880Z,2.30
2022-08-12T01:19:47.322Z,1.83
2022-08-12T01:22:26.982Z,2.38
2022-08-12T01:25:05.706Z,2.28
2022-08-12T01:27:37.770Z,2.10
2022-08-12T01:30:12.033Z,2.17
2022-08-12T01:32:43.893Z,2.10
2022-08-12T01:35:17.687Z,2.22
2022-08-12T01:37:50.474Z,2.17
2022-08-12T01:40:34.914Z,2.20
2022-08-12T01:43:10.676Z,2.70
2022-08-12T01:45:48.868Z,2.30
2022-08-12T01:48:28.220Z,3.05
2022-08-12T01:51:06.761Z,2.33
2022-08-12T01:53:50.717Z,2.10
2022-08-12T01:56:27.496Z,2.13
2022-08-12T01:59:16.926Z,2.67
2022-08-12T02:01:48.798Z,2.50
2022-08-12T02:04:39.638Z,2.30
2022-08-12T02:07:33.400Z,2.30
2022-08-12T02:10:50.547Z,2.10
2022-08-12T02:13:41.815Z,2.10
2022-08-12T02:16:23.698Z,1.80
2022-08-12T02:19:02.230Z,1.80
2022-08-12T02:21:42.117Z,2.58
2022-08-12T02:24:16.248Z,2.08
2022-08-12T02:26:49.686Z,2.10
2022-08-12T02:29:22.528Z,2.03
2022-08-12T02:31:53.671Z,1.95
2022-08-12T02:34:25.363Z,2.00
2022-08-12T02:36:57.488Z,2.13
2022-08-12T02:39:34.564Z,1.98
2022-08-12T02:42:07.587Z,2.10
2022-08-12T02:44:44.953Z,2.15
2022-08-12T02:48:00.147Z,2.05
2022-08-12T02:50:08.816Z,1.83
2022-08-12T02:52:40.583Z,2.28
2022-08-12T02:55:28.613Z,2.08
2022-08-12T02:58:12.360Z,2.95
2022-08-12T03:00:47.731Z,2.10
2022-08-12T03:03:18.339Z,2.17
2022-08-12T03:05:54.479Z,1.92
2022-08-12T03:08:31.677Z,2.45
2022-08-12T03:11:12.051Z,2.30
2022-08-12T03:13:49.042Z,1.98
2022-08-12T03:16:22.444Z,1.70
2022-08-12T03:18:54.656Z,2.10
2022-08-12T03:21:52.799Z,2.00
2022-08-12T03:24:20.159Z,2.40
2022-08-12T03:26:51.563Z,2.60
2022-08-12T03:29:30.135Z,2.80
2022-08-12T03:32:05.583Z,2.70
2022-08-12T03:34:38.854Z,2.40
2022-08-12T03:37:11.209Z,2.05
2022-08-12T03:39:45.617Z,2.75
2022-08-12T03:42:28.396Z,2.72
2022-08-12T03:45:34.577Z,2.40
2022-08-12T03:48:31.590Z,2.42
2022-08-12T03:51:14.650Z,2.05
2022-08-12T03:53:57.090Z,2.35
2022-08-12T03:56:39.523Z,2.55
2022-08-12T03:59:23.097Z,2.70
2022-08-12T04:01:57.532Z,2.42
2022-08-12T04:04:34.832Z,2.97
2022-08-12T04:07:08.023Z,2.67
2022-08-12T04:09:40.869Z,3.40
2022-08-12T04:12:26.181Z,2.65
2022-08-12T04:14:57.633Z,2.38
2022-08-12T04:17:28.406Z,2.60
2022-08-12T04:20:02.478Z,2.83
2022-08-12T04:22:32.658Z,2.60
2022-08-12T04:25:03.201Z,2.63
2022-08-12T04:27:34.163Z,2.40
2022-08-12T04:30:30.213Z,2.47
2022-08-12T04:32:54.794Z,2.60
2022-08-12T04:35:27.572Z,2.42
2022-08-12T04:38:01.056Z,2.35
2022-08-12T04:40:33.025Z,3.30
2022-08-12T04:43:03.887Z,3.75
2022-08-12T04:45:34.905Z,3.08
2022-08-12T04:48:04.921Z,2.95
2022-08-12T04:50:37.658Z,2.75
2022-08-12T04:53:09.324Z,3.20
2022-08-12T04:55:41.003Z,2.70
2022-08-12T04:58:12.290Z,3.05
2022-08-12T05:00:44.881Z,3.00
2022-08-12T05:03:14.804Z,3.10
2022-08-12T05:05:47.619Z,3.15
2022-08-12T05:08:19.630Z,3.20
2022-08-12T05:10:50.541Z,3.20
2022-08-12T05:13:23.326Z,3.25
2022-08-12T05:16:05.601Z,3.05
2022-08-12T05:18:45.803Z,2.88
2022-08-12T05:21:20.397Z,3.85
2022-08-12T05:23:50.512Z,2.67
2022-08-12T05:26:20.476Z,3.40
2022-08-12T05:28:51.087Z,3.63
2022-08-12T05:31:40.357Z,3.05
2022-08-12T05:34:14.810Z,3.63
2022-08-12T05:36:47.369Z,3.90
2022-08-12T05:39:17.367Z,3.65
2022-08-12T05:41:47.325Z,3.83
2022-08-12T05:44:17.598Z,3.67
2022-08-12T05:46:47.617Z,3.92
2022-08-12T05:49:17.534Z,4.05
2022-08-12T05:51:50.104Z,3.53
2022-08-12T05:54:31.040Z,4.05
2022-08-12T05:57:11.610Z,3.83
2022-08-12T05:59:41.953Z,3.20
2022-08-12T06:02:13.639Z,3.40
2022-08-12T06:04:43.890Z,3.20
2022-08-12T06:07:59.630Z,4.05
2022-08-12T06:10:07.014Z,3.67
2022-08-12T06:12:36.994Z,3.40
2022-08-12T06:15:07.734Z,3.67
2022-08-12T06:17:37.695Z,3.72
2022-08-12T06:20:27.207Z,3.60
2022-08-12T06:23:02.640Z,3.30
2022-08-12T06:25:34.725Z,3.45
2022-08-12T06:28:07.926Z,3.45
2022-08-12T06:30:41.237Z,3.60
2022-08-12T06:33:22.572Z,3.75
2022-08-12T06:35:58.742Z,3.83
2022-08-12T06:38:33.187Z,3.60
2022-08-12T06:41:16.438Z,3.90
2022-08-12T06:44:05.827Z,3.97
2022-08-12T06:46:39.520Z,3.88
2022-08-12T06:49:13.386Z,3.72
2022-08-12T06:51:56.058Z,3.53
2022-08-12T06:54:31.985Z,3.55
2022-08-12T06:57:57.488Z,3.95
2022-08-12T06:59:52.828Z,4.28
2022-08-12T07:02:23.139Z,4.10
2022-08-12T07:04:53.116Z,4.50
2022-08-12T07:07:23.051Z,4.20
2022-08-12T07:10:05.837Z,4.50
2022-08-12T07:12:37.548Z,4.68
2022-08-12T07:15:08.548Z,3.90
2022-08-12T07:17:38.755Z,3.15
2022-08-12T07:20:29.598Z,3.20
2022-08-12T07:23:00.931Z,3.80
2022-08-12T07:25:40.839Z,3.65
2022-08-12T07:28:16.957Z,3.95
2022-08-12T07:30:49.324Z,3.40
2022-08-12T07:33:22.457Z,3.78
2022-08-12T07:35:54.596Z,3.72
2022-08-12T07:38:30.786Z,3.47
2022-08-12T07:41:07.500Z,3.42
2022-08-12T07:43:39.997Z,3.38
2022-08-12T07:46:12.609Z,3.22
2022-08-12T07:48:45.666Z,3.60
2022-08-12T07:51:25.171Z,3.40
2022-08-12T07:54:00.942Z,3.90
2022-08-12T07:56:35.701Z,3.40
2022-08-12T07:59:05.956Z,3.75
2022-08-12T08:01:38.031Z,3.75
2022-08-12T08:04:21.561Z,3.58
2022-08-12T08:06:52.955Z,3.60
2022-08-12T08:09:24.892Z,3.90
2022-08-12T08:12:09.817Z,3.78
2022-08-12T08:14:52.107Z,3.38
2022-08-12T08:17:22.230Z,3.88
2022-08-12T08:20:03.873Z,3.95
2022-08-12T08:22:41.527Z,3.70
2022-08-12T08:25:35.055Z,3.50
2022-08-12T08:28:09.566Z,3.17
2022-08-12T08:30:42.526Z,3.08
2022-08-12T08:33:24.732Z,3.28
2022-08-12T08:36:05.334Z,3.42
2022-08-12T08:38:36.179Z,3.33
2022-08-12T08:42:16.030Z,3.13
2022-08-12T08:44:12.252Z,3.03
2022-08-12T08:46:43.731Z,3.10
2022-08-12T08:49:15.806Z,2.92
2022-08-12T08:51:46.583Z,3.17
2022-08-12T08:54:16.630Z,3.47
2022-08-12T08:56:50.325Z,2.88
2022-08-12T08:59:23.351Z,3.22
2022-08-12T09:01:53.327Z,3.10
2022-08-12T09:05:11.234Z,2.53
2022-08-12T09:07:17.692Z,3.45
2022-08-12T09:10:04.310Z,2.80
2022-08-12T09:12:54.793Z,2.15
2022-08-12T09:15:35.594Z,3.00
2022-08-12T09:18:08.987Z,2.97
2022-08-12T09:20:40.576Z,2.80
2022-08-12T09:23:58.431Z,3.13
2022-08-12T09:26:08.101Z,2.70
2022-08-12T09:28:41.223Z,2.50
2022-08-12T09:32:06.138Z,2.80
2022-08-12T09:34:29.455Z,3.10
2022-08-12T09:37:01.640Z,2.65
2022-08-12T09:40:06.093Z,2.42
2022-08-12T09:42:42.985Z,2.33
2022-08-12T09:46:11.309Z,2.45
2022-08-12T09:48:22.235Z,2.60
2022-08-12T09:51:00.081Z,2.75
2022-08-12T09:53:36.280Z,2.60
2022-08-12T09:56:58.968Z,2.45
2022-08-12T09:59:05.513Z,2.50
2022-08-12T10:02:42.324Z,2.55
2022-08-12T10:04:31.012Z,2.40
2022-08-12T10:07:03.130Z,2.30
2022-08-12T10:09:57.056Z,2.50
2022-08-12T10:12:35.417Z,2.85
2022-08-12T10:15:06.847Z,2.25
2022-08-12T10:18:06.067Z,2.65
2022-08-12T10:20:30.206Z,2.67
2022-08-12T10:23:05.841Z,2.25
2022-08-12T10:26:34.605Z,2.50
2022-08-12T10:29:02.538Z,2.15
2022-08-12T10:32:20.118Z,2.60
2022-08-12T10:34:26.701Z,2.60
2022-08-12T10:37:22.618Z,2.60
2022-08-12T10:40:01.501Z,2.78
2022-08-12T10:42:54.345Z,2.40
2022-08-12T10:45:24.320Z,2.70
2022-08-12T10:48:07.036Z,3.13
2022-08-12T10:51:02.451Z,2.20
2022-08-12T10:53:45.108Z,2.58
2022-08-12T10:56:18.208Z,2.55
2022-08-12T10:58:48.662Z,2.55
2022-08-12T11:01:49.197Z,2.67
2022-08-12T11:04:24.442Z,2.55
2022-08-12T11:07:07.813Z,2.40
2022-08-12T11:10:00.133Z,2.35
2022-08-12T11:12:55.504Z,2.33
2022-08-12T11:16:03.207Z,2.35
2022-08-12T11:18:17.925Z,3.88
2022-08-12T11:20:50.591Z,3.25
2022-08-12T11:23:36.230Z,2.95
2022-08-12T11:26:11.043Z,2.38
2022-08-12T11:28:41.126Z,2.63
2022-08-12T11:31:14.290Z,2.75
2022-08-12T11:34:05.951Z,2.60
2022-08-12T11:36:39.399Z,2.30
2022-08-12T11:39:12.594Z,2.10
2022-08-12T11:41:45.268Z,2.50
2022-08-12T11:44:35.200Z,2.65
2022-08-12T11:47:09.467Z,2.63
2022-08-12T11:49:39.649Z,2.35
2022-08-12T11:52:35.887Z,2.00
2022-08-12T11:55:00.081Z,1.90
2022-08-12T11:58:14.621Z,2.08
2022-08-12T12:02:00.913Z,1.90
2022-08-12T12:03:14.260Z,2.17
2022-08-12T12:05:47.341Z,2.42
2022-08-12T12:08:37.091Z,2.00
2022-08-12T12:11:10.269Z,2.00
2022-08-12T12:14:07.252Z,2.40
2022-08-12T12:16:33.319Z,1.88
2022-08-12T12:19:05.521Z,2.20
2022-08-12T12:21:48.001Z,2.08
2022-08-12T12:24:21.907Z,2.45
2022-08-12T12:27:00.176Z,2.75
2022-08-12T12:30:17.688Z,2.50
2022-08-12T12:32:29.360Z,2.47
2022-08-12T12:35:14.003Z,2.38
2022-08-12T12:38:03.443Z,1.92
2022-08-12T12:40:39.799Z,2.45
2022-08-12T12:43:11.028Z,2.25
2022-08-12T12:45:46.331Z,2.03
2022-08-12T12:48:18.379Z,2.03
2022-08-12T12:51:09.811Z,2.50
2022-08-12T12:54:07.772Z,2.35
2022-08-12T12:56:34.414Z,2.30
2022-08-12T12:59:06.325Z,2.17
2022-08-12T13:01:42.057Z,2.25
2022-08-12T13:04:13.776Z,2.08
2022-08-12T13:06:47.063Z,2.70
2022-08-12T13:09:17.065Z,2.03
2022-08-12T13:11:53.081Z,1.95
2022-08-12T13:14:29.470Z,1.90
2022-08-12T13:17:06.080Z,2.57
2022-08-12T13:19:44.537Z,1.95
2022-08-12T13:22:20.690Z,1.90
2022-08-12T13:24:56.862Z,2.05
2022-08-12T13:27:34.513Z,2.33
2022-08-12T13:30:12.099Z,2.42
2022-08-12T13:32:56.742Z,2.00
2022-08-12T13:36:02.895Z,1.80
2022-08-12T13:38:26.645Z,2.05
2022-08-12T13:41:11.748Z,2.10
2022-08-12T13:43:42.031Z,1.90
2022-08-12T13:46:12.675Z,2.00
2022-08-12T13:48:45.814Z,1.83
2022-08-12T13:51:24.157Z,2.38
2022-08-12T13:54:00.235Z,1.95
2022-08-12T13:56:36.847Z,2.00
2022-08-12T13:59:08.873Z,2.63
2022-08-12T14:01:41.494Z,2.20
2022-08-12T14:04:14.136Z,1.80
2022-08-12T14:06:50.551Z,1.90
2022-08-12T14:09:20.506Z,1.75
2022-08-12T14:11:59.163Z,1.92
2022-08-12T14:14:31.518Z,1.90
2022-08-12T14:17:10.357Z,2.05
2022-08-12T14:20:03.651Z,2.00
2022-08-12T14:22:34.930Z,1.98
2022-08-12T14:25:09.005Z,2.10
2022-08-12T14:28:03.910Z,2.45
2022-08-12T14:30:30.613Z,2.38
2022-08-12T14:33:03.404Z,2.42
2022-08-12T14:35:41.375Z,2.60
2022-08-12T14:38:25.443Z,2.00
2022-08-12T14:40:59.474Z,1.80
2022-08-12T14:43:31.521Z,1.88
2022-08-12T14:46:04.152Z,1.77
2022-08-12T14:48:34.399Z,2.30
2022-08-12T14:52:48.513Z,2.30
2022-08-12T14:56:08.983Z,1.83
2022-08-12T14:57:20.664Z,1.80
2022-08-12T14:59:57.657Z,1.80
2022-08-12T15:02:29.797Z,1.83
2022-08-12T15:05:03.463Z,1.70
2022-08-12T15:07:50.113Z,1.65
2022-08-12T15:10:24.950Z,1.80
2022-08-12T15:13:08.426Z,1.98
2022-08-12T15:15:44.146Z,1.70
2022-08-12T15:18:21.514Z,1.98
2022-08-12T15:20:55.488Z,2.08
2022-08-12T15:23:33.095Z,1.90
2022-08-12T15:26:21.242Z,2.20
2022-08-12T15:28:57.497Z,2.10
2022-08-12T15:32:01.864Z,2.05
2022-08-12T15:34:17.542Z,1.88
2022-08-12T15:36:54.581Z,1.77
2022-08-12T15:39:28.028Z,2.38
2022-08-12T15:42:01.862Z,3.17
2022-08-12T15:44:38.272Z,2.13
2022-08-12T15:47:12.775Z,1.90
2022-08-12T15:50:00.275Z,2.08
2022-08-12T15:52:32.639Z,2.20
2022-08-12T15:55:11.393Z,2.20
2022-08-12T15:57:50.382Z,2.00
2022-08-12T16:00:32.736Z,2.10
2022-08-12T16:03:08.600Z,2.17
2022-08-12T16:06:12.339Z,2.58
2022-08-12T16:08:36.924Z,2.22
2022-08-12T16:11:15.433Z,2.20
2022-08-12T16:13:46.205Z,2.75
2022-08-12T16:16:23.521Z,2.13
2022-08-12T16:18:59.570Z,2.72
2022-08-12T16:21:52.776Z,2.38
2022-08-12T16:24:23.282Z,2.95
2022-08-12T16:26:56.298Z,2.25
2022-08-12T16:29:49.371Z,2.40
2022-08-12T16:32:31.259Z,2.13
2022-08-12T16:35:05.931Z,2.08
2022-08-12T16:38:24.401Z,1.90
2022-08-12T16:40:29.257Z,2.15
2022-08-12T16:43:12.861Z,2.22
2022-08-12T16:46:23.262Z,2.17
2022-08-12T16:48:36.158Z,2.63
2022-08-12T16:51:10.300Z,2.38
2022-08-12T16:53:44.589Z,2.72
2022-08-12T16:56:18.236Z,2.30
2022-08-12T16:58:52.242Z,2.67
2022-08-12T17:01:22.912Z,2.80
2022-08-12T17:04:10.210Z,3.40
2022-08-12T17:06:43.410Z,2.25
2022-08-12T17:09:17.852Z,2.40
2022-08-12T17:11:50.145Z,3.03
2022-08-12T17:14:24.924Z,2.75
2022-08-12T17:17:01.678Z,3.53
2022-08-12T17:20:28.916Z,3.13
2022-08-12T17:22:30.261Z,2.97
2022-08-12T17:25:02.525Z,2.10
2022-08-12T17:27:36.549Z,2.35
2022-08-12T17:30:13.455Z,2.42
2022-08-12T17:32:46.451Z,2.25
2022-08-12T17:35:36.882Z,2.15
2022-08-12T17:38:11.950Z,2.20
2022-08-12T17:40:42.925Z,2.30
2022-08-12T17:43:54.923Z,2.63
2022-08-12T17:46:13.118Z,2.50
2022-08-12T17:48:57.964Z,2.63
2022-08-12T17:51:31.694Z,2.83
2022-08-12T17:54:10.434Z,2.50
2022-08-12T17:56:44.598Z,2.55
2022-08-12T17:59:27.512Z,2.78
2022-08-12T18:02:10.128Z,4.60
2022-08-12T18:05:05.172Z,3.83
2022-08-12T18:07:37.327Z,2.60
2022-08-12T18:10:10.979Z,3.15
2022-08-12T18:12:42.730Z,3.03
2022-08-12T18:15:21.486Z,3.43
2022-08-12T18:18:00.970Z,3.53
2022-08-12T18:20:36.531Z,6.93
2022-08-12T18:23:08.044Z,5.35
2022-08-12T18:26:15.609Z,5.22
2022-08-12T18:28:43.307Z,4.18
2022-08-12T18:31:15.509Z,3.60
2022-08-12T18:33:49.838Z,4.28
2022-08-12T18:36:22.485Z,3.25
2022-08-12T18:38:56.243Z,2.80
2022-08-12T18:41:34.185Z,3.75
2022-08-12T18:44:09.624Z,9.95
2022-08-12T18:46:55.900Z,16.45
2022-08-12T18:49:39.191Z,10.23
2022-08-12T18:52:12.201Z,12.85
2022-08-12T18:54:49.528Z,5.88
2022-08-12T18:57:45.635Z,4.55
2022-08-12T19:00:22.389Z,4.30
2022-08-12T19:02:54.115Z,4.30
2022-08-12T19:05:53.039Z,4.68
2022-08-12T19:08:18.927Z,3.70
2022-08-12T19:10:50.708Z,3.47
2022-08-12T19:13:36.743Z,3.30
2022-08-12T19:16:12.937Z,7.40
2022-08-12T19:18:44.683Z,4.05
2022-08-12T19:21:20.081Z,3.03
2022-08-12T19:24:13.490Z,3.75
2022-08-12T19:26:43.690Z,8.32
2022-08-12T19:29:14.256Z,5.60
2022-08-12T19:31:58.318Z,3.80
2022-08-12T19:37:38.653Z,3.90
2022-08-12T19:40:31.561Z,5.00
2022-08-12T19:43:19.768Z,4.07
2022-08-12T19:45:56.483Z,4.13
2022-08-12T19:48:33.132Z,5.45
2022-08-12T19:51:09.188Z,3.90
2022-08-12T19:53:58.642Z,3.78
2022-08-12T19:56:30.153Z,5.30
2022-08-12T19:59:13.537Z,5.65
2022-08-12T20:02:02.871Z,6.30
2022-08-12T20:04:37.700Z,7.72
2022-08-12T20:07:09.375Z,7.93
2022-08-12T20:09:57.316Z,6.43
2022-08-12T20:12:32.466Z,7.28
2022-08-12T20:15:22.099Z,4.38
2022-08-12T20:17:57.453Z,4.47
2022-08-12T20:20:30.554Z,3.60
2022-08-12T20:23:06.356Z,4.22
2022-08-12T20:25:53.582Z,3.75
2022-08-12T20:28:28.942Z,4.95
2022-08-12T20:30:59.899Z,5.85
2022-08-12T20:33:32.238Z,4.00
2022-08-12T20:36:42.509Z,4.53
2022-08-12T20:39:37.223Z,3.70
2022-08-12T20:42:07.651Z,3.78
2022-08-12T20:44:39.833Z,3.90
2022-08-12T20:47:18.289Z,3.85
2022-08-12T20:49:55.415Z,4.22
2022-08-12T20:52:34.042Z,3.60
2022-08-12T20:55:05.969Z,3.90
2022-08-12T20:58:02.430Z,4.55
2022-08-12T21:00:35.149Z,6.22
2022-08-12T21:03:18.173Z,5.50
2022-08-12T21:06:12.187Z,4.50
2022-08-12T21:08:44.271Z,3.75
2022-08-12T21:11:14.390Z,4.05
2022-08-12T21:13:47.016Z,3.95
2022-08-12T21:16:17.042Z,4.03
2022-08-12T21:21:49.959Z,4.13
2022-08-12T21:24:20.793Z,4.47
2022-08-12T21:27:03.534Z,4.53
2022-08-12T21:29:55.093Z,4.57
2022-08-12T21:32:40.504Z,4.85
2022-08-12T21:35:19.002Z,4.53
2022-08-12T21:37:53.102Z,4.40
2022-08-12T21:40:37.258Z,3.80
2022-08-12T21:43:15.970Z,4.47
2022-08-12T21:46:00.774Z,4.40
2022-08-12T21:48:31.735Z,3.60
2022-08-12T21:51:01.735Z,4.32
2022-08-12T21:54:07.912Z,4.80
2022-08-12T21:56:34.694Z,4.00
2022-08-12T21:59:07.337Z,4.75
2022-08-12T22:01:49.170Z,4.60
2022-08-12T22:04:32.920Z,4.57
2022-08-12T22:07:03.606Z,3.97
2022-08-12T22:09:43.338Z,4.25
2022-08-12T22:14:55.619Z,3.65
2022-08-12T22:17:50.281Z,4.97
2022-08-12T22:20:21.795Z,4.53
2022-08-12T22:22:53.864Z,4.25
2022-08-12T22:25:28.770Z,4.18
2022-08-12T22:28:11.563Z,4.55
2022-08-12T22:30:53.981Z,3.80
2022-08-12T22:33:26.527Z,4.10
2022-08-12T22:35:59.847Z,4.40
2022-08-12T22:38:30.945Z,4.03
2022-08-12T22:41:03.287Z,4.47
2022-08-12T22:44:00.081Z,4.43
2022-08-12T22:46:51.976Z,4.35
2022-08-12T22:49:36.923Z,3.50
2022-08-12T22:52:23.034Z,3.65
2022-08-12T22:55:02.523Z,3.92
2022-08-12T22:57:53.636Z,4.45
2022-08-12T23:00:27.875Z,4.55
2022-08-12T23:03:03.353Z,4.15
2022-08-12T23:06:05.575Z,4.95
2022-08-12T23:08:32.073Z,4.72
2022-08-12T23:11:05.942Z,4.55
2022-08-12T23:13:54.708Z,4.68
2022-08-12T23:16:33.416Z,4.03
2022-08-12T23:19:10.291Z,4.63
2022-08-12T23:22:05.472Z,4.47
2022-08-12T23:24:55.483Z,4.20
2022-08-12T23:27:50.267Z,4.80
2022-08-12T23:30:32.294Z,4.30
2022-08-12T23:33:12.996Z,4.43
2022-08-12T23:35:59.006Z,4.57
2022-08-12T23:38:39.732Z,5.30
2022-08-12T23:43:48.751Z,5.38
2022-08-12T23:46:22.185Z,5.07
2022-08-12T23:48:59.761Z,5.68
2022-08-12T23:51:32.330Z,5.20
2022-08-12T23:54:10.206Z,4.57
2022-08-12T23:56:47.914Z,5.38
2022-08-12T23:59:19.098Z,5.43
